Aérodrome :
LOGIN :

S'inscrire | Disclaimer

   EN    FR    IT 

 










Légende :    VFR   VFR Marginal   IFR   IFR Intensif   IFR Très Intensif
Visi : 
Plafond : 
>= 8 km
>= 3000ft
5 à 8 km
1000 à 3000 ft
1500m à 5 km
500 à 1000 ft
800 à 1500m
200 à 500 ft
< 800m
< 200 ft
Symboles :   Orages  Brouillard  Fortes neiges  Fortes précipitations  Vent > 20 kt
SIGMETs :   Divers  Orages  Givrage  Turbulence  Onde Orograph.  Cendres Volcan.






- Altitude de l'aérodrome : 124 ft
- Code IATA : AVN


LFMV - Avignon Caumont

DERNIER METAR :
  • 220400Z AUTO 33009KT 9999 VCTS FEW025/// BKN045/// BKN060/// ///CB 19/17 Q1014 TEMPO 2000 TSRA

METARs EXPIRÉS :
  • 220330Z AUTO VRB01KT 9999 BKN070/// OVC090/// ///CB 19/16 Q1014 TEMPO VRB12G22KT 2000 TSRA
  • 220300Z AUTO 12006KT 9999 ///CB 19/16 Q1014 TEMPO 2000 TSRA
  • 220230Z AUTO 13007KT 9999 SCT041/// BKN078/// OVC098/// ///TCU 19/16 Q1014
  • 220200Z AUTO 14005KT 9999 ///CB 19/16 Q1014

TAF TAF LFMV
Valide du 22 à 03h jusqu'au 23 à 03h UTC


220200Z 2203/2303 24005KT 9999 FEW020 SCT040
PROB40
TEMPO 2203/2207 VRB12G22KT 2000 TSRA SCT020CB
PROB40
TEMPO 2207/2209 4000 SHRA SCT060CB
TEMPO 2209/2222 VRB12G22KT 2000 TSRA BKN020CB
BECMG 2210/2212 20010KT
ATIS : +33 4 90 84 32 84



MET'MAP, la Météo Aéronautique d'un coup d'oeil ! - Copyright ORBIFLY Décembre 2007 - Disclaimer

ORBIFLY MET'MAP TEAM :

Programmation & Développement : Alexandra Zaïnal
Sur une idée originale de : Baudouin d'Aumeries
Assistance à la programmation : Marc-Olivier Méhu
Soutien technique & logistique : Manuel Goepfert

Contact : metmap@orbifly.com




SOURCES & CREDITS :

   NOAA